SBCZ/CZS METAR and TAF weather

Enter ICAO airport designator
Station Type Date Time Source
SBCZ METAR 2019/06/17 06:45 UTC NOAA

SBCZ 170645Z 00000KT CAVOK 22/22 Q1016


Station Type Date Time Source
SBCZ Decoded METAR 2019/06/17 06:45 UTC NOAA

Cruzeiro Do Sul, Brazil (SBCZ) 07-38S 072-40W
Jun 17, 2019 - 02:45 AM EDT / 2019.06.17 0645 UTC
Wind: Calm:0
Visibility: greater than 7 mile(s):0
Temperature: 71 F (22 C)
Dew Point: 71 F (22 C)
Relative Humidity: 100%
Pressure (altimeter): 30.00 in. Hg (1016 hPa)
ob: SBCZ 170645Z 00000KT CAVOK 22/22 Q1016
cycle: 7

Station Type Date Time Source
SBCZ TAF 2019/06/17 06:56 UTC NOAA

TAF SBCZ 170300Z 1706/1806 03005KT 9999 SCT030 TN24/1713Z TX31/1718Z
BECMG 1713/1715 12005KT FEW015
BECMG 1716/1718 07005KT FEW030
BECMG 1721/1 723 SHRA SCT025 FEW035TCU
BECMG 1800/1802 04005KT CAVOK
RMK PGY

Example: see airport list